Time;durP1;ratioP1;P1;durP2;ratioP2;P2;SDS_P1;SDS_P2;PMS_P1;PMS_P2;Temp;Humidity;BMP_temperature;BMP_pressure;BME280_temperature;BME280_humidity;BME280_pressure;Samples;Min_cycle;Max_cycle;Signal;HPM_P1;HPM_P2
2023/04/28 00:00:40;;;;;;;5.43;4.93;;;8.90;99.90;;;9.79;83.09;97793.94;5118093;28;20600;-64
2023/04/28 00:03:14;;;;;;;5.88;5.10;;;9.00;99.90;;;9.84;83.88;97789.97;5116889;28;20734;-64
2023/04/28 00:05:48;;;;;;;5.60;5.10;;;9.00;99.90;;;9.79;83.69;97781.16;5117421;28;20200;-63
2023/04/28 00:08:22;;;;;;;6.37;5.87;;;8.90;99.90;;;9.76;83.39;97781.00;5117427;28;20220;-63
2023/04/28 00:10:55;;;;;;;5.73;5.33;;;8.90;99.90;;;9.74;82.47;97785.13;5112836;28;20588;-63
2023/04/28 00:13:28;;;;;;;5.77;5.37;;;8.90;99.90;;;9.84;84.20;97771.22;5115974;28;20212;-64
2023/04/28 00:16:01;;;;;;;5.85;5.45;;;9.00;99.90;;;9.89;83.65;97765.59;5116531;28;20669;-63
2023/04/28 00:18:35;;;;;;;5.37;4.97;;;9.00;99.90;;;9.93;85.17;97761.56;5115340;28;20255;-64
2023/04/28 00:21:08;;;;;;;5.90;5.30;;;9.10;99.90;;;9.75;82.90;97758.78;5114524;28;20212;-64
2023/04/28 00:23:41;;;;;;;5.60;5.17;;;9.00;99.90;;;9.68;82.84;97761.78;5117388;28;20602;-63
2023/04/28 00:26:14;;;;;;;5.73;5.27;;;8.90;99.90;;;9.78;82.77;97765.75;5115924;28;20228;-64
2023/04/28 00:28:47;;;;;;;6.37;5.80;;;8.90;99.90;;;9.83;82.91;97757.56;5113225;28;20604;-64
2023/04/28 00:31:20;;;;;;;5.77;5.30;;;9.00;99.90;;;9.85;83.95;97755.13;5116678;28;20205;-64
2023/04/28 00:33:54;;;;;;;5.77;5.27;;;9.00;99.90;;;9.87;83.30;97741.66;5116601;28;20688;-63
2023/04/28 00:36:30;;;;;;;6.40;5.90;;;9.00;99.90;;;9.89;83.36;97734.06;5116528;28;20208;-63
2023/04/28 00:39:04;;;;;;;6.40;5.97;;;9.00;99.90;;;9.86;84.31;97737.31;5124769;28;20220;-64
2023/04/28 00:41:37;;;;;;;6.60;6.00;;;9.00;99.90;;;9.80;84.55;97744.63;5115823;28;20212;-63
2023/04/28 00:44:10;;;;;;;6.50;5.90;;;9.00;99.90;;;9.70;83.45;97750.00;5116285;28;20217;-64
2023/04/28 00:46:43;;;;;;;5.63;5.23;;;8.90;99.90;;;9.78;84.09;97750.44;5114701;28;20314;-63
2023/04/28 00:49:17;;;;;;;6.30;5.80;;;9.00;99.90;;;9.85;83.92;97752.56;5115743;28;20705;-63
2023/04/28 00:51:50;;;;;;;6.30;5.70;;;9.10;99.90;;;9.97;84.19;97743.06;5116804;28;20200;-62
2023/04/28 00:54:23;;;;;;;6.13;5.53;;;9.10;99.90;;;9.94;84.55;97740.31;5115693;28;20208;-63
2023/04/28 00:56:56;;;;;;;6.23;5.63;;;9.10;99.90;;;9.90;84.22;97741.84;5109078;28;20208;-63
2023/04/28 00:59:29;;;;;;;5.70;5.20;;;9.10;99.90;;;9.98;84.25;97738.81;5115241;28;20229;-63
2023/04/28 01:02:03;;;;;;;5.60;5.07;;;9.20;99.90;;;10.03;84.71;97737.41;5117332;28;20675;-63
2023/04/28 01:04:38;;;;;;;6.13;5.53;;;9.20;99.90;;;10.08;84.72;97733.47;5116129;28;20573;-63
2023/04/28 01:07:11;;;;;;;5.97;5.47;;;9.30;99.90;;;10.10;84.12;97730.19;5114901;28;20718;-64
2023/04/28 01:09:46;;;;;;;5.70;5.20;;;9.20;99.90;;;10.10;84.85;97716.53;5113016;28;20242;-64
2023/04/28 01:12:19;;;;;;;5.60;5.20;;;9.20;99.90;;;10.08;84.04;97716.47;5114433;28;20762;-64
2023/04/28 01:14:52;;;;;;;5.78;5.38;;;9.20;99.90;;;10.09;83.11;97712.22;5116423;28;20213;-63
2023/04/28 01:17:25;;;;;;;6.40;5.82;;;9.20;99.90;;;9.95;84.00;97705.47;5112622;28;20615;-64
2023/04/28 01:20:00;;;;;;;6.03;5.53;;;9.10;99.90;;;9.96;84.53;97704.66;5132349;28;20225;-63
2023/04/28 01:22:33;;;;;;;5.93;5.43;;;9.10;99.90;;;10.00;84.22;97698.94;5111132;28;20303;-63
2023/04/28 01:25:08;;;;;;;6.20;5.60;;;9.10;99.90;;;9.96;84.07;97700.47;5112781;28;20201;-65
2023/04/28 01:27:41;;;;;;;5.57;5.18;;;9.10;99.90;;;10.01;85.31;97693.91;5111891;28;20295;-63
2023/04/28 01:30:14;;;;;;;6.00;5.50;;;9.20;99.90;;;10.06;86.03;97692.50;5110787;28;20256;-64
2023/04/28 01:32:47;;;;;;;6.22;5.72;;;9.20;99.90;;;10.08;85.27;97696.03;5115322;28;20668;-64
2023/04/28 01:35:20;;;;;;;6.37;5.80;;;9.20;99.90;;;10.12;84.29;97697.06;5115861;28;20208;-63
2023/04/28 01:37:53;;;;;;;6.57;6.00;;;9.30;99.90;;;10.12;85.34;97690.28;5115841;28;20208;-63
2023/04/28 01:40:27;;;;;;;6.35;5.85;;;9.30;99.90;;;10.09;84.20;97699.47;5113526;28;20205;-64
2023/04/28 01:43:00;;;;;;;6.45;5.95;;;9.30;99.90;;;10.14;84.65;97692.94;5111697;28;20208;-64
2023/04/28 01:45:33;;;;;;;6.07;5.57;;;9.30;99.90;;;10.19;85.12;97690.63;5114049;28;20708;-63
2023/04/28 01:48:06;;;;;;;6.47;5.97;;;9.30;99.90;;;10.08;84.25;97684.94;5113800;28;20244;-63
2023/04/28 01:50:39;;;;;;;5.97;5.47;;;9.30;99.90;;;10.14;85.40;97682.72;5111260;28;20215;-64
2023/04/28 01:53:13;;;;;;;7.32;6.35;;;9.40;99.90;;;10.16;84.88;97683.69;5115329;28;20216;-64
2023/04/28 01:55:48;;;;;;;7.20;6.53;;;9.40;99.90;;;10.07;85.49;97676.41;5111497;28;20240;-64
2023/04/28 01:58:21;;;;;;;6.63;6.03;;;9.30;99.90;;;10.00;86.91;97681.94;5109949;28;20221;-63
2023/04/28 02:00:54;;;;;;;7.75;6.40;;;9.30;99.90;;;9.95;87.08;97682.47;5110827;28;20197;-63
2023/04/28 02:03:27;;;;;;;7.10;6.50;;;9.20;99.90;;;9.82;88.39;97686.91;5116791;28;20209;-63
2023/04/28 02:06:01;;;;;;;7.35;6.75;;;9.10;99.90;;;9.76;89.08;97690.75;5114726;28;20227;-63
2023/04/28 02:08:34;;;;;;;7.13;6.53;;;9.10;99.90;;;9.72;89.57;97689.72;5111945;28;20229;-64
2023/04/28 02:11:08;;;;;;;7.60;7.00;;;9.10;99.90;;;9.71;90.33;97685.41;5115310;28;20504;-64
2023/04/28 02:13:41;;;;;;;7.20;6.57;;;9.10;99.90;;;9.66;91.60;97684.25;5115571;28;20200;-63
2023/04/28 02:16:14;;;;;;;7.53;6.83;;;9.10;99.90;;;9.68;92.00;97673.34;5106369;28;20208;-64
2023/04/28 02:18:47;;;;;;;6.83;6.23;;;9.10;99.90;;;9.63;92.95;97673.88;5113710;28;20252;-64
2023/04/28 02:21:20;;;;;;;7.60;6.90;;;9.10;99.90;;;9.42;94.33;97669.28;5110974;28;20302;-64
2023/04/28 02:23:53;;;;;;;7.13;6.53;;;8.90;99.90;;;9.42;93.80;97666.75;5113991;28;20216;-64
2023/04/28 02:26:28;;;;;;;7.63;7.03;;;8.90;99.90;;;9.41;94.11;97667.53;5115371;28;20587;-64
2023/04/28 02:29:03;;;;;;;7.77;7.00;;;8.90;99.90;;;9.36;94.57;97658.75;5112815;28;20232;-64
2023/04/28 02:31:36;;;;;;;7.50;6.90;;;8.80;99.90;;;9.31;95.70;97655.03;5114075;28;20227;-63
2023/04/28 02:34:09;;;;;;;7.33;6.57;;;8.80;99.90;;;9.40;94.91;97650.47;5111123;28;20231;-64
2023/04/28 02:36:42;;;;;;;8.13;6.47;;;8.80;99.90;;;9.31;96.56;97655.03;5108157;28;20221;-63
2023/04/28 02:39:15;;;;;;;7.53;6.83;;;8.80;99.90;;;9.35;96.63;97650.97;5113360;28;22165;-63
2023/04/28 02:41:49;;;;;;;6.43;5.83;;;8.90;99.90;;;9.36;96.16;97671.50;5113590;28;20219;-64
2023/04/28 02:44:22;;;;;;;7.30;6.70;;;8.90;99.90;;;9.40;96.49;97659.78;5118269;28;20212;-64
2023/04/28 02:46:55;;;;;;;7.67;7.07;;;8.90;99.90;;;9.55;96.20;97659.78;5118381;28;20216;-62
2023/04/28 02:49:28;;;;;;;7.80;6.97;;;9.00;99.90;;;9.49;96.13;97655.22;5117789;28;20224;-64
2023/04/28 02:52:01;;;;;;;9.03;7.50;;;8.90;99.90;;;9.47;96.17;97652.59;5118252;28;20581;-63
2023/04/28 02:54:36;;;;;;;7.50;6.90;;;8.90;99.90;;;9.43;97.26;97644.66;5118626;28;20209;-63
2023/04/28 02:57:10;;;;;;;8.37;7.57;;;8.90;99.90;;;9.51;97.40;97643.44;5117176;28;20207;-63
2023/04/28 02:59:43;;;;;;;7.80;7.10;;;9.00;99.90;;;9.58;97.13;97642.09;5117385;28;20607;-64
2023/04/28 03:02:16;;;;;;;7.63;6.93;;;9.00;99.90;;;9.64;98.12;97642.44;5116277;28;20215;-63
2023/04/28 03:04:49;;;;;;;7.27;6.60;;;9.10;99.90;;;9.63;97.69;97633.91;5119999;28;20660;-64
2023/04/28 03:07:22;;;;;;;7.53;6.83;;;9.10;99.90;;;9.63;98.52;97639.03;5117014;28;20209;-63
2023/04/28 03:09:55;;;;;;;8.17;7.37;;;9.10;99.90;;;9.51;99.29;97637.47;5117907;28;20233;-64
2023/04/28 03:12:29;;;;;;;7.60;6.90;;;9.10;99.90;;;9.63;98.91;97639.03;5117433;28;20759;-63
2023/04/28 03:15:03;;;;;;;7.80;7.10;;;9.10;99.90;;;9.73;98.87;97639.53;5115564;28;20204;-63
2023/04/28 03:17:37;;;;;;;7.13;6.57;;;9.10;99.90;;;9.76;98.62;97640.63;5116265;28;20585;-64
2023/04/28 03:20:11;;;;;;;7.93;7.17;;;9.20;99.90;;;9.81;99.14;97634.06;5117486;28;20577;-64
2023/04/28 03:22:45;;;;;;;7.60;7.00;;;9.20;99.90;;;9.84;98.54;97630.81;5118120;28;20782;-64
2023/04/28 03:25:18;;;;;;;6.80;6.20;;;9.20;99.90;;;9.87;99.14;97624.22;5117815;28;20572;-63
2023/04/28 03:27:52;;;;;;;7.10;6.60;;;9.30;99.90;;;9.94;99.48;97625.44;5117584;28;20215;-63
2023/04/28 03:30:25;;;;;;;7.50;6.80;;;9.30;99.90;;;10.02;99.85;97633.53;5115559;28;20231;-63
2023/04/28 03:32:58;;;;;;;7.47;6.87;;;9.40;99.90;;;10.06;99.55;97625.25;5118106;28;20208;-63
2023/04/28 03:35:31;;;;;;;6.93;6.20;;;9.40;99.90;;;10.11;99.87;97618.72;5117810;28;20205;-63
2023/04/28 03:38:05;;;;;;;7.50;6.80;;;9.40;99.90;;;10.04;99.66;97616.59;5114095;28;20225;-63
2023/04/28 03:40:38;;;;;;;7.83;7.13;;;9.40;99.90;;;10.07;99.97;97619.31;5116849;28;20200;-63
2023/04/28 03:43:13;;;;;;;7.63;6.70;;;9.40;99.90;;;10.04;100.00;97608.94;5115444;28;20581;-63
2023/04/28 03:45:46;;;;;;;7.25;6.60;;;9.40;99.90;;;10.06;100.00;97609.91;5115970;28;20211;-64
2023/04/28 03:48:19;;;;;;;7.00;6.37;;;9.50;99.90;;;10.11;100.00;97618.72;5116522;28;20742;-63
2023/04/28 03:50:53;;;;;;;7.37;6.87;;;9.50;99.90;;;10.13;99.81;97612.91;5119470;28;20224;-63
2023/04/28 03:53:26;;;;;;;7.00;6.40;;;9.50;99.90;;;10.20;100.00;97609.00;5116370;28;20231;-63
2023/04/28 03:55:59;;;;;;;7.23;6.53;;;9.60;99.90;;;10.27;99.76;97608.59;5115856;28;20757;-64
2023/04/28 03:58:33;;;;;;;7.67;6.97;;;9.60;99.90;;;10.31;99.70;97613.03;5116036;28;20229;-64
2023/04/28 04:01:06;;;;;;;7.55;6.95;;;9.60;99.90;;;10.42;100.00;97600.84;5111173;28;20593;-65
2023/04/28 04:03:39;;;;;;;7.60;6.90;;;9.70;99.90;;;10.40;100.00;97606.66;5112910;28;20201;-65
2023/04/28 04:06:13;;;;;;;7.10;6.40;;;9.70;99.90;;;10.43;100.00;97627.28;5116543;28;20215;-62
2023/04/28 04:08:46;;;;;;;7.82;7.15;;;9.70;99.90;;;10.49;100.00;97617.38;5113628;28;20784;-64
2023/04/28 04:11:19;;;;;;;7.63;7.05;;;9.80;99.90;;;10.47;100.00;97613.84;5111404;28;20598;-62
2023/04/28 04:13:54;;;;;;;7.13;6.63;;;9.80;99.90;;;10.49;100.00;97614.81;5110019;28;20209;-64
2023/04/28 04:16:28;;;;;;;7.75;7.15;;;9.80;99.90;;;10.44;100.00;97622.22;5107831;28;20204;-65
2023/04/28 04:19:01;;;;;;;7.70;7.10;;;9.70;99.90;;;10.38;100.00;97612.56;5124013;28;20224;-64
2023/04/28 04:21:34;;;;;;;7.57;6.90;;;9.70;99.90;;;10.32;100.00;97604.56;5113285;29;20216;-65
2023/04/28 04:24:07;;;;;;;8.10;7.40;;;9.60;99.90;;;10.34;100.00;97597.00;5113435;28;20212;-64
2023/04/28 04:26:40;;;;;;;7.10;6.53;;;9.60;99.90;;;10.26;100.00;97604.22;5112709;28;20205;-63
2023/04/28 04:29:14;;;;;;;7.63;6.97;;;9.60;99.90;;;10.28;100.00;97605.22;5113166;28;20259;-66
2023/04/28 04:31:48;;;;;;;7.10;6.47;;;9.60;99.90;;;10.31;100.00;97609.63;5129762;28;20228;-66
2023/04/28 04:34:21;;;;;;;7.47;6.77;;;9.60;99.90;;;10.34;100.00;97608.09;5108663;28;20209;-66
2023/04/28 04:36:54;;;;;;;7.57;6.88;;;9.70;99.90;;;10.36;100.00;97601.41;5114579;28;20204;-66
2023/04/28 04:39:27;;;;;;;7.45;6.00;;;9.60;99.90;;;10.33;100.00;97603.78;5113770;28;20228;-63
2023/04/28 04:42:01;;;;;;;7.05;6.38;;;9.60;99.90;;;10.29;100.00;97601.84;5115783;28;20209;-65
2023/04/28 04:44:56;;;;;;;7.18;6.57;;;9.60;99.90;;;10.29;100.00;97594.19;5114918;28;20208;-65
2023/04/28 04:47:28;;;;;;;6.87;6.17;;;9.60;99.90;;;10.35;100.00;97602.19;5117062;28;20591;-64
2023/04/28 04:50:02;;;;;;;7.18;6.55;;;9.60;99.90;;;10.40;100.00;97592.22;5115840;28;20236;-65
2023/04/28 04:52:35;;;;;;;7.55;6.82;;;9.70;99.90;;;10.45;100.00;97595.91;5110575;28;20296;-64
2023/04/28 04:55:09;;;;;;;6.93;6.32;;;9.70;99.90;;;10.49;100.00;97599.50;5115366;28;20205;-65
2023/04/28 04:57:44;;;;;;;8.15;7.45;;;9.80;99.90;;;10.55;100.00;97602.38;5115034;28;20217;-66
2023/04/28 05:00:19;;;;;;;7.25;6.55;;;9.80;99.90;;;10.57;100.00;97605.88;5113084;28;20680;-64
2023/04/28 05:02:52;;;;;;;6.85;6.18;;;9.80;99.90;;;10.56;100.00;97599.03;5112019;28;20208;-63
2023/04/28 05:05:26;;;;;;;6.97;6.47;;;9.80;99.90;;;10.59;100.00;97605.19;5108782;28;20668;-65
2023/04/28 05:07:59;;;;;;;6.50;6.00;;;9.90;99.90;;;10.69;100.00;97606.53;5111602;28;20225;-62
2023/04/28 05:10:32;;;;;;;6.28;5.75;;;9.90;99.90;;;10.62;100.00;97604.47;5116362;28;20315;-65
2023/04/28 05:13:05;;;;;;;7.10;6.60;;;9.90;99.90;;;10.72;100.00;97604.13;5115409;28;20427;-65
2023/04/28 05:15:39;;;;;;;7.53;6.93;;;9.90;99.90;;;10.70;100.00;97603.19;5111019;28;20307;-65
2023/04/28 05:18:12;;;;;;;6.85;6.22;;;9.90;99.90;;;10.59;100.00;97606.84;5105795;28;20227;-66
2023/04/28 05:20:46;;;;;;;7.95;7.15;;;9.80;99.90;;;10.53;100.00;97598.84;5111385;28;20213;-65
2023/04/28 05:23:19;;;;;;;8.00;7.30;;;9.70;99.90;;;10.49;100.00;97599.50;5110548;28;20201;-65
2023/04/28 05:25:52;;;;;;;7.28;6.68;;;9.70;99.90;;;10.41;100.00;97600.75;5122219;28;20208;-64
2023/04/28 05:28:25;;;;;;;8.35;7.63;;;9.70;99.90;;;10.45;100.00;97584.81;5112810;28;20245;-66
2023/04/28 05:30:59;;;;;;;9.35;8.50;;;9.70;99.90;;;10.50;100.00;97593.56;5114888;28;20228;-65
2023/04/28 05:33:32;;;;;;;9.03;8.33;;;9.80;99.90;;;10.53;100.00;97597.19;5111870;28;20226;-64
2023/04/28 05:36:06;;;;;;;9.55;8.80;;;9.80;99.90;;;10.62;100.00;97591.69;5113605;28;20204;-64
2023/04/28 05:38:39;;;;;;;9.50;8.60;;;9.90;99.90;;;10.64;100.00;97592.63;5113815;28;20235;-65
2023/04/28 05:41:12;;;;;;;8.32;7.65;;;9.90;99.90;;;10.61;100.00;97600.13;5108471;28;20204;-66
2023/04/28 05:43:46;;;;;;;8.82;8.13;;;9.90;99.90;;;10.72;100.00;97595.59;5113461;28;20577;-65
2023/04/28 05:46:20;;;;;;;7.85;7.22;;;10.00;99.90;;;10.77;100.00;97599.25;5115158;28;20575;-65
2023/04/28 05:49:02;;;;;;;7.88;7.28;;;10.10;99.90;;;10.81;100.00;97599.47;5109102;28;20229;-66
2023/04/28 05:51:35;;;;;;;7.65;7.05;;;10.10;99.90;;;10.89;100.00;97606.69;5113891;28;20681;-65
2023/04/28 05:54:08;;;;;;;8.27;7.68;;;10.20;99.90;;;10.96;100.00;97603.63;5114894;28;20213;-65
2023/04/28 05:56:41;;;;;;;8.93;8.20;;;10.30;99.90;;;11.02;100.00;97603.97;5109382;28;20592;-64
2023/04/28 05:59:14;;;;;;;8.30;7.70;;;10.30;99.90;;;11.03;100.00;97606.59;5103935;28;20224;-65
2023/04/28 06:01:49;;;;;;;8.60;7.80;;;10.30;99.90;;;11.08;100.00;97601.72;5107332;28;20209;-65
2023/04/28 06:04:23;;;;;;;8.38;7.70;;;10.40;99.90;;;11.06;100.00;97605.88;5106397;28;20219;-66
2023/04/28 06:06:57;;;;;;;8.75;8.13;;;10.40;99.90;;;11.07;100.00;97605.06;5106293;28;20211;-66
2023/04/28 06:09:30;;;;;;;8.60;7.80;;;10.40;99.90;;;11.11;100.00;97601.88;5109395;28;20224;-64
2023/04/28 06:12:04;;;;;;;7.28;6.65;;;10.40;99.90;;;11.10;100.00;97602.66;5108570;28;20588;-66
2023/04/28 06:14:37;;;;;;;8.20;7.50;;;10.40;99.90;;;11.10;100.00;97607.78;5109742;28;20661;-65
2023/04/28 06:17:11;;;;;;;8.18;7.57;;;10.40;99.90;;;11.13;100.00;97604.50;5113378;28;20208;-66
2023/04/28 06:19:44;;;;;;;7.72;6.97;;;10.40;99.90;;;11.16;100.00;97602.09;5112220;28;20231;-66
2023/04/28 06:22:17;;;;;;;10.02;9.10;;;10.40;99.90;;;11.21;100.00;97604.06;5114193;28;20211;-65
2023/04/28 06:24:50;;;;;;;11.15;10.10;;;10.50;99.90;;;11.30;100.00;97602.78;5117057;28;20211;-65
2023/04/28 06:27:23;;;;;;;10.63;9.73;;;10.50;99.90;;;11.21;100.00;97598.97;5115934;29;20299;-65
2023/04/28 06:29:56;;;;;;;10.73;9.82;;;10.40;99.90;;;11.23;100.00;97594.81;5115743;28;20660;-62
2023/04/28 06:32:30;;;;;;;9.57;8.77;;;10.40;99.90;;;11.10;100.00;97589.88;5113369;28;20695;-64
2023/04/28 06:35:04;;;;;;;10.45;9.55;;;10.40;99.90;;;11.14;100.00;97606.28;5108816;28;20211;-64
2023/04/28 06:37:37;;;;;;;9.55;8.65;;;10.40;99.90;;;11.16;100.00;97605.53;5114333;28;20205;-65
2023/04/28 06:40:11;;;;;;;11.75;10.65;;;10.50;99.90;;;11.17;100.00;97607.28;5110512;28;20601;-65
2023/04/28 06:42:44;;;;;;;11.35;10.43;;;10.50;99.90;;;11.14;100.00;97602.03;5114898;28;20221;-62
2023/04/28 06:45:17;;;;;;;10.57;9.57;;;10.40;99.90;;;11.09;100.00;97588.13;5112351;28;20212;-65
2023/04/28 06:47:54;;;;;;;11.52;10.43;;;10.40;99.90;;;11.16;100.00;97595.31;5109160;28;20215;-65
2023/04/28 06:50:27;;;;;;;12.68;11.50;;;10.50;99.90;;;11.23;100.00;97597.38;5110034;28;20208;-65
2023/04/28 06:53:01;;;;;;;11.82;10.82;;;10.60;99.90;;;11.31;100.00;97589.22;5115189;28;20708;-66
2023/04/28 06:55:35;;;;;;;12.88;11.68;;;10.60;99.90;;;11.32;100.00;97596.06;5115839;28;20282;-65
2023/04/28 06:58:08;;;;;;;13.73;12.55;;;10.70;99.90;;;11.34;100.00;97594.47;5115007;28;20229;-65
2023/04/28 07:00:41;;;;;;;12.75;11.65;;;10.70;99.90;;;11.31;100.00;97594.31;5116598;28;20204;-66
2023/04/28 07:03:15;;;;;;;11.90;10.90;;;10.70;99.90;;;11.32;100.00;97588.41;5109086;28;20236;-65
2023/04/28 07:05:48;;;;;;;11.25;10.25;;;10.70;99.90;;;11.33;100.00;97585.94;5108517;28;20201;-65
2023/04/28 07:08:21;;;;;;;11.55;10.45;;;10.70;99.90;;;11.41;100.00;97581.16;5109955;28;20228;-63
2023/04/28 07:10:54;;;;;;;12.05;10.85;;;10.80;99.90;;;11.43;100.00;97587.25;5113551;28;20265;-65
2023/04/28 07:13:27;;;;;;;12.02;10.90;;;10.80;99.90;;;11.44;100.00;97571.06;5119368;28;20227;-66
2023/04/28 07:16:00;;;;;;;11.07;10.18;;;10.80;99.90;;;11.49;100.00;97580.75;5112908;28;20209;-65
2023/04/28 07:18:35;;;;;;;12.13;11.02;;;10.90;99.90;;;11.48;100.00;97580.69;5113244;28;20229;-66
2023/04/28 07:21:08;;;;;;;13.30;12.20;;;10.90;99.90;;;11.53;100.00;97576.63;5111417;28;20596;-66
2023/04/28 07:23:42;;;;;;;12.23;11.10;;;10.90;99.90;;;11.57;100.00;97576.00;5113748;28;20741;-66
2023/04/28 07:26:15;;;;;;;11.30;10.20;;;10.90;99.90;;;11.60;100.00;97567.59;5114369;28;20603;-66
2023/04/28 07:28:48;;;;;;;10.27;9.48;;;10.90;99.90;;;11.61;100.00;97566.78;5121581;28;20323;-65
2023/04/28 07:31:21;;;;;;;10.55;9.75;;;11.00;99.90;;;11.66;100.00;97573.88;5116373;28;20226;-66
2023/04/28 07:33:56;;;;;;;12.02;10.93;;;11.00;99.90;;;11.67;100.00;97565.38;5112534;28;20290;-66
2023/04/28 07:36:29;;;;;;;10.80;9.90;;;11.00;99.90;;;11.66;100.00;97561.06;5115916;28;20217;-66
2023/04/28 07:39:03;;;;;;;11.88;10.85;;;11.00;99.90;;;11.73;100.00;97559.69;5117831;28;20236;-65
2023/04/28 07:41:37;;;;;;;10.90;10.00;;;11.10;99.90;;;11.82;100.00;97554.16;5113489;28;20212;-66
2023/04/28 07:44:10;;;;;;;11.35;10.35;;;11.10;99.90;;;11.77;100.00;97555.59;5141910;28;20571;-66
2023/04/28 07:46:43;;;;;;;12.10;11.02;;;11.10;99.90;;;11.79;100.00;97551.41;5113708;28;20220;-64
2023/04/28 07:49:18;;;;;;;11.32;10.30;;;11.20;99.90;;;11.82;100.00;97543.91;5115701;28;20302;-66
2023/04/28 07:51:53;;;;;;;14.73;13.40;;;11.20;99.90;;;11.88;100.00;97549.34;5107216;28;20251;-66
2023/04/28 07:54:26;;;;;;;13.18;11.18;;;11.20;99.90;;;11.75;100.00;97545.28;5111118;28;20206;-66
2023/04/28 07:56:59;;;;;;;12.63;11.32;;;11.10;99.90;;;11.76;100.00;97543.59;5114626;28;20577;-66
2023/04/28 07:59:33;;;;;;;19.58;17.67;;;11.20;99.90;;;11.86;100.00;97546.69;5113545;28;20246;-65
2023/04/28 08:02:06;;;;;;;23.67;20.92;;;11.20;99.90;;;11.83;100.00;97540.53;5117116;28;20193;-66
2023/04/28 08:04:41;;;;;;;27.08;24.17;;;11.10;99.90;;;11.83;100.00;97540.53;5119005;28;20304;-66
2023/04/28 08:07:14;;;;;;;24.58;22.25;;;11.20;99.90;;;11.84;100.00;97544.81;5111410;28;20196;-67
2023/04/28 08:09:47;;;;;;;27.65;24.90;;;11.10;99.90;;;11.83;100.00;97540.53;5114744;28;20236;-66
2023/04/28 08:12:20;;;;;;;28.63;25.90;;;11.20;99.90;;;11.84;100.00;97552.50;5113251;28;20847;-65
2023/04/28 08:14:53;;;;;;;25.15;22.73;;;11.20;99.90;;;11.86;100.00;97551.81;5117781;28;20205;-66
2023/04/28 08:17:27;;;;;;;27.35;24.70;;;11.20;99.90;;;11.87;100.00;97553.56;5110949;28;20648;-67
2023/04/28 08:20:01;;;;;;;18.58;16.98;;;11.30;99.90;;;11.90;100.00;97560.50;5114693;28;20292;-65
2023/04/28 08:22:34;;;;;;;14.15;12.55;;;11.30;99.90;;;11.91;100.00;97569.97;5113842;28;20223;-66
2023/04/28 08:25:08;;;;;;;10.88;9.93;;;11.30;99.90;;;11.98;100.00;97554.06;5109495;28;20249;-65
2023/04/28 08:27:42;;;;;;;16.38;14.75;;;11.40;99.90;;;12.06;100.00;97552.75;5108471;28;20679;-65
2023/04/28 08:30:15;;;;;;;29.73;26.90;;;11.50;99.90;;;12.20;100.00;97570.44;5107368;29;20210;-65
2023/04/28 08:32:48;;;;;;;34.95;31.55;;;11.60;99.90;;;12.24;100.00;97565.50;5109793;28;20260;-66
2023/04/28 08:35:22;;;;;;;31.02;28.00;;;11.60;99.90;;;12.26;100.00;97580.97;5110387;28;20204;-65
2023/04/28 08:37:55;;;;;;;25.70;23.20;;;11.60;99.90;;;12.26;100.00;97581.84;5109685;28;20656;-66
2023/04/28 08:40:30;;;;;;;25.92;23.38;;;11.60;99.90;;;12.29;100.00;97592.22;5108686;28;20216;-66
2023/04/28 08:43:03;;;;;;;23.38;20.98;;;11.60;99.90;;;12.27;100.00;97600.66;5109322;28;20199;-65
2023/04/28 08:45:44;;;;;;;20.95;18.95;;;11.60;99.90;;;12.23;100.00;97603.88;5107065;28;20205;-66
2023/04/28 08:48:20;;;;;;;16.52;14.82;;;11.60;99.90;;;12.25;100.00;97607.41;5112700;28;20220;-65
2023/04/28 08:50:54;;;;;;;14.07;12.68;;;11.60;99.90;;;12.25;100.00;97602.28;5117726;28;20204;-66
2023/04/28 08:53:27;;;;;;;13.20;12.00;;;11.60;99.90;;;12.28;100.00;97608.41;5115909;28;20684;-66
2023/04/28 08:56:01;;;;;;;11.27;10.07;;;11.70;99.90;;;12.34;100.00;97618.09;5113626;28;20282;-66
2023/04/28 08:58:36;;;;;;;12.27;11.07;;;11.70;99.90;;;12.39;100.00;97617.50;5105321;28;20236;-65
2023/04/28 09:01:09;;;;;;;19.05;17.05;;;11.80;99.90;;;12.52;100.00;97606.09;5114304;28;20205;-64
2023/04/28 09:03:43;;;;;;;18.13;16.23;;;11.80;99.90;;;12.55;100.00;97603.66;5107309;28;20225;-65
2023/04/28 09:06:17;;;;;;;18.02;15.68;;;11.70;99.90;;;12.53;100.00;97602.75;5114512;28;20300;-65
2023/04/28 09:08:50;;;;;;;16.80;14.80;;;11.80;99.90;;;12.56;100.00;97612.22;5107370;28;20258;-65
2023/04/28 09:11:23;;;;;;;15.43;13.95;;;11.90;99.90;;;12.64;100.00;97608.31;5106994;28;20264;-65
2023/04/28 09:14:12;;;;;;;14.05;12.75;;;12.00;99.90;;;12.78;100.00;97619.19;5114023;28;20228;-65
2023/04/28 09:16:45;;;;;;;12.35;11.15;;;12.10;99.90;;;12.83;100.00;97610.03;5111661;28;20665;-65
2023/04/28 09:19:19;;;;;;;11.35;10.23;;;12.10;99.90;;;12.90;100.00;97609.47;5109279;28;20229;-65
2023/04/28 09:21:57;;;;;;;11.38;10.38;;;12.10;99.90;;;13.01;100.00;97609.94;5116299;28;20223;-65
2023/04/28 09:24:31;;;;;;;10.45;9.52;;;12.10;99.90;;;12.99;100.00;97612.47;5110771;28;20629;-66
2023/04/28 09:27:06;;;;;;;9.07;8.27;;;12.20;99.90;;;13.05;100.00;97607.59;5108058;28;20215;-66
2023/04/28 09:29:52;;;;;;;8.70;7.90;;;12.30;99.90;;;13.01;100.00;97615.06;5105717;28;20221;-64
2023/04/28 09:32:26;;;;;;;8.93;8.13;;;12.20;99.90;;;12.97;100.00;97602.94;5112302;28;20219;-64
2023/04/28 09:35:00;;;;;;;9.15;8.35;;;12.20;99.90;;;12.97;100.00;97608.94;5111916;28;20319;-64
2023/04/28 09:37:36;;;;;;;8.63;7.82;;;12.20;99.90;;;13.02;100.00;97612.59;5106840;28;20228;-66
2023/04/28 09:40:11;;;;;;;7.75;7.10;;;12.30;99.90;;;13.05;100.00;97617.84;5110629;28;20382;-64
2023/04/28 09:42:45;;;;;;;8.13;7.43;;;12.30;99.90;;;13.14;100.00;97616.50;5112255;28;20680;-64
2023/04/28 09:45:18;;;;;;;8.02;7.32;;;12.40;99.90;;;13.19;100.00;97609.84;5112745;28;20552;-65
2023/04/28 09:47:51;;;;;;;7.97;7.30;;;12.40;99.90;;;13.21;100.00;97611.69;5111109;28;20209;-63
2023/04/28 09:50:24;;;;;;;6.85;6.25;;;12.40;99.90;;;13.28;100.00;97605.16;5109623;28;20646;-64
2023/04/28 09:52:58;;;;;;;5.47;5.07;;;12.50;99.90;;;13.25;100.00;97605.00;5114678;28;20604;-65
2023/04/28 09:55:34;;;;;;;5.18;4.78;;;12.40;99.90;;;13.30;100.00;97613.78;5107943;28;20205;-64
2023/04/28 09:58:07;;;;;;;6.07;5.68;;;12.50;99.90;;;13.31;100.00;97620.69;5112722;29;20247;-65
2023/04/28 10:00:41;;;;;;;7.40;6.80;;;12.50;99.90;;;13.34;100.00;97604.56;5115459;28;20214;-66
2023/04/28 10:03:15;;;;;;;6.13;5.72;;;12.50;99.90;;;13.44;100.00;97607.53;5111381;28;20560;-64
2023/04/28 10:05:49;;;;;;;6.45;5.85;;;12.60;99.90;;;13.50;100.00;97602.66;5104730;28;20438;-64
2023/04/28 10:08:26;;;;;;;6.85;6.30;;;12.70;99.90;;;13.61;100.00;97599.66;5115223;28;20239;-65
2023/04/28 10:10:59;;;;;;;6.30;5.80;;;12.80;99.90;;;13.70;100.00;97590.63;5115015;28;20620;-64
2023/04/28 10:13:34;;;;;;;6.00;5.50;;;12.90;99.90;;;13.88;100.00;97580.25;5116414;28;20232;-65
2023/04/28 10:16:08;;;;;;;4.40;4.10;;;13.00;99.90;;;14.19;100.00;97574.59;5111053;28;20208;-64
2023/04/28 10:18:42;;;;;;;4.55;4.15;;;13.30;99.90;;;14.29;100.00;97570.66;5112673;28;20691;-65
2023/04/28 10:21:18;;;;;;;4.78;4.38;;;13.30;99.90;;;14.56;100.00;97564.81;5108292;28;20215;-63
2023/04/28 10:24:06;;;;;;;4.82;4.50;;;13.60;99.90;;;14.68;100.00;97574.69;5110884;28;20209;-67
2023/04/28 10:27:07;;;;;;;5.25;4.65;;;13.60;99.90;;;14.67;100.00;97571.22;5113381;28;20200;-64
2023/04/28 10:29:40;;;;;;;4.53;4.22;;;13.70;99.90;;;14.64;100.00;97572.00;5111382;28;20763;-64
2023/04/28 10:32:18;;;;;;;4.88;4.55;;;13.80;99.90;;;14.82;100.00;97571.81;5111706;28;20200;-64
2023/04/28 10:34:52;;;;;;;5.43;5.03;;;13.90;99.90;;;14.83;100.00;97573.56;5111538;28;20252;-67
2023/04/28 10:38:05;;;;;;;5.40;5.00;;;14.00;99.90;;;14.92;100.00;97574.69;5106959;28;20205;-65
2023/04/28 10:40:41;;;;;;;6.15;5.63;;;14.00;99.90;;;15.03;100.00;97570.81;5125031;28;20212;-64
2023/04/28 10:43:32;;;;;;;6.47;5.97;;;14.20;99.90;;;15.03;100.00;97576.81;5113203;28;20207;-64
2023/04/28 10:46:08;;;;;;;5.40;4.95;;;14.10;99.90;;;15.04;100.00;97575.13;5112151;28;20238;-64